ESKN

Stockholm Skavsta Airport

Stockholm / Nyköping, Sweden
METAR ESKN 170150Z 34009KT 9999 BKN008 M01/M02 Q1009 R26/750151
Observed Flight Rules
Dec-17 @ 01:50 UTC (31 minutes ago) Instrument Flight Rules
Wind Visibility Clouds
340° at 9 knots 10,000+ meters
  • Broken at 800' AGL
Temperatures Readings
Current -1°C / 30°F
Dewpoint -2°C / 28°F
Humidity 93%
Altimeter 29.79" Hg
Pressure 1009 hPa
Elevation 43
METAR ESKN 170150Z 34009KT 9999 BKN008 M01/M02 Q1009 R26/750151
Observed Flight Rules
Dec-17 @ 01:50 UTC
(31 minutes ago)
IFR
Wind Visibility
340° at 9 knots 10,000+ meters
Clouds
  • Broken at 800' AGL
Temperature Dewpoint
-1°C / 30°F -2°C / 28°F
Humidity Altimeter Pressure
93% 29.79" Hg 1009 hPa